sensor_id;sensor_type;location;lat;lon;timestamp;temperature;humidity
2977;DHT22;1498;51.500;7.440;2023-03-01T00:01:24;3.30;99.90
2977;DHT22;1498;51.500;7.440;2023-03-01T00:03:50;3.30;99.90
2977;DHT22;1498;51.500;7.440;2023-03-01T00:06:16;3.30;99.90
2977;DHT22;1498;51.500;7.440;2023-03-01T00:08:42;3.30;99.90
2977;DHT22;1498;51.500;7.440;2023-03-01T00:11:11;3.40;99.90
2977;DHT22;1498;51.500;7.440;2023-03-01T00:13:37;3.40;99.90
2977;DHT22;1498;51.500;7.440;2023-03-01T00:16:05;3.30;99.90
2977;DHT22;1498;51.500;7.440;2023-03-01T00:18:30;3.30;99.90
2977;DHT22;1498;51.500;7.440;2023-03-01T00:20:56;3.40;99.90
2977;DHT22;1498;51.500;7.440;2023-03-01T00:23:22;3.50;99.90
2977;DHT22;1498;51.500;7.440;2023-03-01T00:25:49;3.40;99.90
2977;DHT22;1498;51.500;7.440;2023-03-01T00:28:15;3.30;99.90
2977;DHT22;1498;51.500;7.440;2023-03-01T00:30:41;3.30;99.90
2977;DHT22;1498;51.500;7.440;2023-03-01T00:33:06;3.20;99.90
2977;DHT22;1498;51.500;7.440;2023-03-01T00:35:32;3.10;99.90
2977;DHT22;1498;51.500;7.440;2023-03-01T00:37:58;3.10;99.90
2977;DHT22;1498;51.500;7.440;2023-03-01T00:40:25;3.10;99.90
2977;DHT22;1498;51.500;7.440;2023-03-01T00:42:51;3.10;99.90
2977;DHT22;1498;51.500;7.440;2023-03-01T00:45:17;3.00;99.90
2977;DHT22;1498;51.500;7.440;2023-03-01T00:47:42;3.00;99.90
2977;DHT22;1498;51.500;7.440;2023-03-01T00:50:09;3.10;99.90
2977;DHT22;1498;51.500;7.440;2023-03-01T00:52:34;3.20;99.90
2977;DHT22;1498;51.500;7.440;2023-03-01T00:55:00;3.20;99.90
2977;DHT22;1498;51.500;7.440;2023-03-01T00:57:26;3.10;99.90
2977;DHT22;1498;51.500;7.440;2023-03-01T00:59:51;3.10;99.90
2977;DHT22;1498;51.500;7.440;2023-03-01T01:02:18;3.00;99.90
2977;DHT22;1498;51.500;7.440;2023-03-01T01:04:45;2.90;99.90
2977;DHT22;1498;51.500;7.440;2023-03-01T01:07:10;2.90;99.90
2977;DHT22;1498;51.500;7.440;2023-03-01T01:09:36;2.90;99.90
2977;DHT22;1498;51.500;7.440;2023-03-01T01:12:02;2.90;99.90
2977;DHT22;1498;51.500;7.440;2023-03-01T01:14:28;2.80;99.90
2977;DHT22;1498;51.500;7.440;2023-03-01T01:16:53;2.80;99.90
2977;DHT22;1498;51.500;7.440;2023-03-01T01:19:19;2.80;99.90
2977;DHT22;1498;51.500;7.440;2023-03-01T01:21:45;2.80;99.90
2977;DHT22;1498;51.500;7.440;2023-03-01T01:24:11;2.70;99.90
2977;DHT22;1498;51.500;7.440;2023-03-01T01:26:37;2.70;99.90
2977;DHT22;1498;51.500;7.440;2023-03-01T01:29:04;2.60;99.90
2977;DHT22;1498;51.500;7.440;2023-03-01T01:31:30;2.50;99.90
2977;DHT22;1498;51.500;7.440;2023-03-01T01:33:57;2.50;99.90
2977;DHT22;1498;51.500;7.440;2023-03-01T01:36:23;2.50;99.90
2977;DHT22;1498;51.500;7.440;2023-03-01T01:38:49;2.50;99.90
2977;DHT22;1498;51.500;7.440;2023-03-01T01:41:15;2.50;99.90
2977;DHT22;1498;51.500;7.440;2023-03-01T01:46:31;2.50;99.90
2977;DHT22;1498;51.500;7.440;2023-03-01T01:49:01;2.60;99.90
2977;DHT22;1498;51.500;7.440;2023-03-01T01:51:40;2.80;99.90
2977;DHT22;1498;51.500;7.440;2023-03-01T01:54:14;2.70;99.90
2977;DHT22;1498;51.500;7.440;2023-03-01T01:56:46;2.70;99.90
2977;DHT22;1498;51.500;7.440;2023-03-01T01:59:13;2.80;99.90
2977;DHT22;1498;51.500;7.440;2023-03-01T02:01:39;2.70;99.90
2977;DHT22;1498;51.500;7.440;2023-03-01T02:04:05;2.60;99.90
2977;DHT22;1498;51.500;7.440;2023-03-01T02:06:35;2.50;99.90
2977;DHT22;1498;51.500;7.440;2023-03-01T02:09:07;2.60;99.90
2977;DHT22;1498;51.500;7.440;2023-03-01T02:11:36;2.60;99.90
2977;DHT22;1498;51.500;7.440;2023-03-01T02:14:03;2.60;99.90
2977;DHT22;1498;51.500;7.440;2023-03-01T02:16:29;2.60;99.90
2977;DHT22;1498;51.500;7.440;2023-03-01T02:18:57;2.50;99.90
2977;DHT22;1498;51.500;7.440;2023-03-01T02:23:54;2.40;99.90
2977;DHT22;1498;51.500;7.440;2023-03-01T02:26:36;2.60;99.90
2977;DHT22;1498;51.500;7.440;2023-03-01T02:29:04;2.60;99.90
2977;DHT22;1498;51.500;7.440;2023-03-01T02:31:31;2.70;99.90
2977;DHT22;1498;51.500;7.440;2023-03-01T02:34:14;2.70;99.90
2977;DHT22;1498;51.500;7.440;2023-03-01T02:36:55;2.70;99.90
2977;DHT22;1498;51.500;7.440;2023-03-01T02:39:26;2.70;99.90
2977;DHT22;1498;51.500;7.440;2023-03-01T02:41:54;2.70;99.90
2977;DHT22;1498;51.500;7.440;2023-03-01T02:44:21;2.70;99.90
2977;DHT22;1498;51.500;7.440;2023-03-01T02:46:52;2.70;99.90
2977;DHT22;1498;51.500;7.440;2023-03-01T02:49:28;2.60;99.90
2977;DHT22;1498;51.500;7.440;2023-03-01T02:54:52;2.40;99.90
2977;DHT22;1498;51.500;7.440;2023-03-01T02:57:22;2.40;99.90
2977;DHT22;1498;51.500;7.440;2023-03-01T02:59:49;2.50;99.90
2977;DHT22;1498;51.500;7.440;2023-03-01T03:02:22;2.50;99.90
2977;DHT22;1498;51.500;7.440;2023-03-01T03:05:11;2.40;99.90
2977;DHT22;1498;51.500;7.440;2023-03-01T03:07:39;2.30;99.90
2977;DHT22;1498;51.500;7.440;2023-03-01T03:10:08;2.20;99.90
2977;DHT22;1498;51.500;7.440;2023-03-01T03:12:34;2.10;99.90
2977;DHT22;1498;51.500;7.440;2023-03-01T03:15:00;2.10;99.90
2977;DHT22;1498;51.500;7.440;2023-03-01T03:17:25;2.20;99.90
2977;DHT22;1498;51.500;7.440;2023-03-01T03:19:51;2.30;99.90
2977;DHT22;1498;51.500;7.440;2023-03-01T03:22:16;2.40;99.90
2977;DHT22;1498;51.500;7.440;2023-03-01T03:24:42;2.40;99.90
2977;DHT22;1498;51.500;7.440;2023-03-01T03:27:08;2.40;99.90
2977;DHT22;1498;51.500;7.440;2023-03-01T03:29:33;2.20;99.90
2977;DHT22;1498;51.500;7.440;2023-03-01T03:31:59;2.20;99.90
2977;DHT22;1498;51.500;7.440;2023-03-01T03:34:25;2.20;99.90
2977;DHT22;1498;51.500;7.440;2023-03-01T03:36:56;2.30;99.90
2977;DHT22;1498;51.500;7.440;2023-03-01T05:32:44;1.60;99.90
2977;DHT22;1498;51.500;7.440;2023-03-01T05:35:12;1.60;99.90
2977;DHT22;1498;51.500;7.440;2023-03-01T05:37:42;1.60;99.90
2977;DHT22;1498;51.500;7.440;2023-03-01T05:40:10;1.50;99.90
2977;DHT22;1498;51.500;7.440;2023-03-01T05:42:44;1.40;99.90
2977;DHT22;1498;51.500;7.440;2023-03-01T05:45:11;1.40;99.90
2977;DHT22;1498;51.500;7.440;2023-03-01T05:47:38;1.40;99.90
2977;DHT22;1498;51.500;7.440;2023-03-01T05:50:05;1.30;99.90
2977;DHT22;1498;51.500;7.440;2023-03-01T05:52:32;1.40;99.90
2977;DHT22;1498;51.500;7.440;2023-03-01T05:54:58;1.40;99.90
2977;DHT22;1498;51.500;7.440;2023-03-01T05:57:23;1.30;99.90
2977;DHT22;1498;51.500;7.440;2023-03-01T05:59:49;1.40;99.90
2977;DHT22;1498;51.500;7.440;2023-03-01T06:02:14;1.40;99.90
2977;DHT22;1498;51.500;7.440;2023-03-01T06:04:40;1.50;99.90
2977;DHT22;1498;51.500;7.440;2023-03-01T06:07:05;1.50;99.90
2977;DHT22;1498;51.500;7.440;2023-03-01T06:09:31;1.60;99.90
2977;DHT22;1498;51.500;7.440;2023-03-01T06:11:56;1.70;99.90
2977;DHT22;1498;51.500;7.440;2023-03-01T06:14:22;1.70;99.90
2977;DHT22;1498;51.500;7.440;2023-03-01T06:16:47;1.80;99.90
2977;DHT22;1498;51.500;7.440;2023-03-01T06:19:13;1.80;99.90
2977;DHT22;1498;51.500;7.440;2023-03-01T06:21:38;1.70;99.90
2977;DHT22;1498;51.500;7.440;2023-03-01T06:24:04;1.70;99.90
2977;DHT22;1498;51.500;7.440;2023-03-01T06:26:32;1.60;99.90
2977;DHT22;1498;51.500;7.440;2023-03-01T06:28:58;1.60;99.90
2977;DHT22;1498;51.500;7.440;2023-03-01T06:31:23;1.50;99.90
2977;DHT22;1498;51.500;7.440;2023-03-01T06:33:49;1.50;99.90
2977;DHT22;1498;51.500;7.440;2023-03-01T06:36:14;1.50;99.90
2977;DHT22;1498;51.500;7.440;2023-03-01T06:38:41;1.50;99.90
2977;DHT22;1498;51.500;7.440;2023-03-01T06:41:07;1.40;99.90
2977;DHT22;1498;51.500;7.440;2023-03-01T06:43:32;1.40;99.90
2977;DHT22;1498;51.500;7.440;2023-03-01T06:45:58;1.30;99.90
2977;DHT22;1498;51.500;7.440;2023-03-01T06:48:23;1.40;99.90
2977;DHT22;1498;51.500;7.440;2023-03-01T06:50:49;1.30;99.90
2977;DHT22;1498;51.500;7.440;2023-03-01T06:53:14;1.40;99.90
2977;DHT22;1498;51.500;7.440;2023-03-01T06:55:40;1.40;99.90
2977;DHT22;1498;51.500;7.440;2023-03-01T06:58:05;1.40;99.90
2977;DHT22;1498;51.500;7.440;2023-03-01T07:00:31;1.40;99.90
2977;DHT22;1498;51.500;7.440;2023-03-01T07:03:01;1.50;99.90
2977;DHT22;1498;51.500;7.440;2023-03-01T07:05:28;1.50;99.90
2977;DHT22;1498;51.500;7.440;2023-03-01T07:07:54;1.40;99.90
2977;DHT22;1498;51.500;7.440;2023-03-01T07:10:20;1.40;99.90
2977;DHT22;1498;51.500;7.440;2023-03-01T07:12:46;1.40;99.90
2977;DHT22;1498;51.500;7.440;2023-03-01T07:15:11;1.40;99.90
2977;DHT22;1498;51.500;7.440;2023-03-01T07:17:37;1.40;99.90
2977;DHT22;1498;51.500;7.440;2023-03-01T07:20:03;1.50;99.90
2977;DHT22;1498;51.500;7.440;2023-03-01T07:22:29;1.60;99.90
2977;DHT22;1498;51.500;7.440;2023-03-01T07:24:54;1.60;99.90
2977;DHT22;1498;51.500;7.440;2023-03-01T07:27:20;1.70;99.90
2977;DHT22;1498;51.500;7.440;2023-03-01T07:29:45;1.70;99.90
2977;DHT22;1498;51.500;7.440;2023-03-01T07:32:11;1.70;99.90
2977;DHT22;1498;51.500;7.440;2023-03-01T07:34:37;1.90;99.90
2977;DHT22;1498;51.500;7.440;2023-03-01T07:37:02;2.00;99.90
2977;DHT22;1498;51.500;7.440;2023-03-01T07:39:28;2.20;99.90
2977;DHT22;1498;51.500;7.440;2023-03-01T07:41:53;2.30;99.90
2977;DHT22;1498;51.500;7.440;2023-03-01T07:44:19;2.70;99.90
2977;DHT22;1498;51.500;7.440;2023-03-01T07:46:45;2.80;99.90
2977;DHT22;1498;51.500;7.440;2023-03-01T07:49:10;3.00;99.90
2977;DHT22;1498;51.500;7.440;2023-03-01T07:51:37;3.20;99.90
2977;DHT22;1498;51.500;7.440;2023-03-01T07:54:03;3.50;99.90
2977;DHT22;1498;51.500;7.440;2023-03-01T07:56:29;3.70;99.90
2977;DHT22;1498;51.500;7.440;2023-03-01T07:58:54;4.00;99.90
2977;DHT22;1498;51.500;7.440;2023-03-01T08:01:22;4.30;99.90
2977;DHT22;1498;51.500;7.440;2023-03-01T08:03:48;4.50;99.90
2977;DHT22;1498;51.500;7.440;2023-03-01T08:06:16;4.80;99.90
2977;DHT22;1498;51.500;7.440;2023-03-01T08:08:42;5.00;99.90
2977;DHT22;1498;51.500;7.440;2023-03-01T08:11:10;5.20;99.90
2977;DHT22;1498;51.500;7.440;2023-03-01T08:13:36;5.30;99.90
2977;DHT22;1498;51.500;7.440;2023-03-01T08:16:13;5.30;99.90
2977;DHT22;1498;51.500;7.440;2023-03-01T08:18:39;5.30;99.90
2977;DHT22;1498;51.500;7.440;2023-03-01T08:21:09;5.40;99.90
2977;DHT22;1498;51.500;7.440;2023-03-01T08:23:35;5.60;99.90
2977;DHT22;1498;51.500;7.440;2023-03-01T08:26:12;5.80;99.90
2977;DHT22;1498;51.500;7.440;2023-03-01T08:28:39;5.90;99.50
2977;DHT22;1498;51.500;7.440;2023-03-01T08:31:35;6.00;98.90
2977;DHT22;1498;51.500;7.440;2023-03-01T08:34:04;6.10;97.90
2977;DHT22;1498;51.500;7.440;2023-03-01T08:36:36;6.20;96.80
2977;DHT22;1498;51.500;7.440;2023-03-01T08:39:03;6.30;97.80
2977;DHT22;1498;51.500;7.440;2023-03-01T08:41:29;6.40;95.90
2977;DHT22;1498;51.500;7.440;2023-03-01T08:43:55;6.30;95.20
2977;DHT22;1498;51.500;7.440;2023-03-01T08:46:27;6.10;96.30
2977;DHT22;1498;51.500;7.440;2023-03-01T08:48:53;6.10;95.60
2977;DHT22;1498;51.500;7.440;2023-03-01T08:51:20;6.00;94.90
2977;DHT22;1498;51.500;7.440;2023-03-01T08:53:46;5.80;96.40
2977;DHT22;1498;51.500;7.440;2023-03-01T08:56:12;5.70;95.60
2977;DHT22;1498;51.500;7.440;2023-03-01T08:58:38;5.60;95.90
2977;DHT22;1498;51.500;7.440;2023-03-01T09:01:09;5.50;97.10
2977;DHT22;1498;51.500;7.440;2023-03-01T09:03:35;5.50;96.10
2977;DHT22;1498;51.500;7.440;2023-03-01T09:06:02;5.40;96.60
2977;DHT22;1498;51.500;7.440;2023-03-01T09:08:28;5.40;97.30
2977;DHT22;1498;51.500;7.440;2023-03-01T09:10:54;5.50;98.30
2977;DHT22;1498;51.500;7.440;2023-03-01T09:13:19;5.60;97.10
2977;DHT22;1498;51.500;7.440;2023-03-01T09:15:45;5.60;97.30
2977;DHT22;1498;51.500;7.440;2023-03-01T09:18:10;5.70;97.70
2977;DHT22;1498;51.500;7.440;2023-03-01T09:20:36;5.80;96.60
2977;DHT22;1498;51.500;7.440;2023-03-01T09:23:01;6.00;95.30
2977;DHT22;1498;51.500;7.440;2023-03-01T09:25:27;6.10;94.80
2977;DHT22;1498;51.500;7.440;2023-03-01T09:27:54;6.20;94.30
2977;DHT22;1498;51.500;7.440;2023-03-01T09:30:22;6.10;95.00
2977;DHT22;1498;51.500;7.440;2023-03-01T09:32:48;6.10;94.60
2977;DHT22;1498;51.500;7.440;2023-03-01T09:35:13;6.20;94.00
2977;DHT22;1498;51.500;7.440;2023-03-01T09:37:39;6.20;94.40
2977;DHT22;1498;51.500;7.440;2023-03-01T09:40:14;6.30;93.10
2977;DHT22;1498;51.500;7.440;2023-03-01T09:42:48;6.20;94.50
2977;DHT22;1498;51.500;7.440;2023-03-01T09:47:53;6.20;95.20
2977;DHT22;1498;51.500;7.440;2023-03-01T09:50:20;6.40;94.30
2977;DHT22;1498;51.500;7.440;2023-03-01T09:55:17;6.60;94.10
2977;DHT22;1498;51.500;7.440;2023-03-01T09:57:47;6.70;93.30
2977;DHT22;1498;51.500;7.440;2023-03-01T10:03:27;6.60;93.60
2977;DHT22;1498;51.500;7.440;2023-03-01T10:06:06;6.90;91.60
2977;DHT22;1498;51.500;7.440;2023-03-01T10:08:53;6.90;91.90
2977;DHT22;1498;51.500;7.440;2023-03-01T10:11:39;7.00;90.70
2977;DHT22;1498;51.500;7.440;2023-03-01T10:14:18;6.90;88.60
2977;DHT22;1498;51.500;7.440;2023-03-01T10:16:58;6.80;90.90
2977;DHT22;1498;51.500;7.440;2023-03-01T10:19:40;6.80;89.80
2977;DHT22;1498;51.500;7.440;2023-03-01T10:22:28;6.70;91.40
2977;DHT22;1498;51.500;7.440;2023-03-01T10:24:57;6.70;91.10
2977;DHT22;1498;51.500;7.440;2023-03-01T10:27:25;6.70;92.00
2977;DHT22;1498;51.500;7.440;2023-03-01T10:30:19;6.80;90.40
2977;DHT22;1498;51.500;7.440;2023-03-01T10:32:48;7.00;90.90
2977;DHT22;1498;51.500;7.440;2023-03-01T10:35:20;7.00;90.20
2977;DHT22;1498;51.500;7.440;2023-03-01T10:38:04;6.80;90.50
2977;DHT22;1498;51.500;7.440;2023-03-01T10:40:31;6.70;91.60
2977;DHT22;1498;51.500;7.440;2023-03-01T10:42:58;6.70;91.70
2977;DHT22;1498;51.500;7.440;2023-03-01T10:45:39;6.80;92.10
2977;DHT22;1498;51.500;7.440;2023-03-01T10:48:14;6.90;91.90
2977;DHT22;1498;51.500;7.440;2023-03-01T10:50:43;7.10;90.10
2977;DHT22;1498;51.500;7.440;2023-03-01T10:53:31;7.30;88.30
2977;DHT22;1498;51.500;7.440;2023-03-01T10:55:58;7.20;91.10
2977;DHT22;1498;51.500;7.440;2023-03-01T10:58:25;7.10;90.90
2977;DHT22;1498;51.500;7.440;2023-03-01T11:00:53;7.20;88.00
2977;DHT22;1498;51.500;7.440;2023-03-01T11:03:26;7.10;90.40
2977;DHT22;1498;51.500;7.440;2023-03-01T11:05:53;7.10;90.00
2977;DHT22;1498;51.500;7.440;2023-03-01T11:08:42;7.20;90.00
2977;DHT22;1498;51.500;7.440;2023-03-01T11:16:26;7.20;89.90
2977;DHT22;1498;51.500;7.440;2023-03-01T11:19:15;7.20;90.80
2977;DHT22;1498;51.500;7.440;2023-03-01T11:21:43;7.20;91.90
2977;DHT22;1498;51.500;7.440;2023-03-01T11:24:14;7.30;91.40
2977;DHT22;1498;51.500;7.440;2023-03-01T11:26:45;7.40;90.30
2977;DHT22;1498;51.500;7.440;2023-03-01T11:29:36;7.50;90.80
2977;DHT22;1498;51.500;7.440;2023-03-01T11:32:07;7.70;90.10
2977;DHT22;1498;51.500;7.440;2023-03-01T11:34:43;7.80;90.60
2977;DHT22;1498;51.500;7.440;2023-03-01T11:37:21;8.00;87.60
2977;DHT22;1498;51.500;7.440;2023-03-01T11:39:58;8.10;88.80
2977;DHT22;1498;51.500;7.440;2023-03-01T11:42:37;8.20;87.60
2977;DHT22;1498;51.500;7.440;2023-03-01T11:45:10;8.30;87.00
2977;DHT22;1498;51.500;7.440;2023-03-01T11:50:41;8.50;83.00
2977;DHT22;1498;51.500;7.440;2023-03-01T11:58:47;8.70;81.90
2977;DHT22;1498;51.500;7.440;2023-03-01T12:01:37;9.00;77.90
2977;DHT22;1498;51.500;7.440;2023-03-01T12:07:17;8.90;79.60
2977;DHT22;1498;51.500;7.440;2023-03-01T12:13:08;9.30;80.30
2977;DHT22;1498;51.500;7.440;2023-03-01T12:16:03;9.60;77.70
2977;DHT22;1498;51.500;7.440;2023-03-01T12:18:58;9.70;70.30
2977;DHT22;1498;51.500;7.440;2023-03-01T12:26:41;10.10;72.50
2977;DHT22;1498;51.500;7.440;2023-03-01T12:34:54;10.50;63.70
2977;DHT22;1498;51.500;7.440;2023-03-01T12:37:42;10.30;62.80
2977;DHT22;1498;51.500;7.440;2023-03-01T12:46:33;9.80;66.40
2977;DHT22;1498;51.500;7.440;2023-03-01T12:49:20;9.90;69.30
2977;DHT22;1498;51.500;7.440;2023-03-01T12:51:59;10.00;64.20
2977;DHT22;1498;51.500;7.440;2023-03-01T12:54:28;10.00;61.30
2977;DHT22;1498;51.500;7.440;2023-03-01T12:56:57;9.90;61.80
2977;DHT22;1498;51.500;7.440;2023-03-01T12:59:34;9.70;61.40
2977;DHT22;1498;51.500;7.440;2023-03-01T13:02:29;9.60;62.10
2977;DHT22;1498;51.500;7.440;2023-03-01T13:05:14;9.50;64.20
2977;DHT22;1498;51.500;7.440;2023-03-01T13:07:58;9.70;66.20
2977;DHT22;1498;51.500;7.440;2023-03-01T13:10:34;9.90;61.60
2977;DHT22;1498;51.500;7.440;2023-03-01T13:13:13;10.00;60.80
2977;DHT22;1498;51.500;7.440;2023-03-01T13:15:39;10.20;59.20
2977;DHT22;1498;51.500;7.440;2023-03-01T13:31:00;10.60;58.60
2977;DHT22;1498;51.500;7.440;2023-03-01T13:35:52;10.80;57.30
2977;DHT22;1498;51.500;7.440;2023-03-01T13:46:48;10.40;55.20
2977;DHT22;1498;51.500;7.440;2023-03-01T13:49:20;10.40;55.90
2977;DHT22;1498;51.500;7.440;2023-03-01T13:51:49;10.30;55.90
2977;DHT22;1498;51.500;7.440;2023-03-01T13:54:25;10.30;55.40
2977;DHT22;1498;51.500;7.440;2023-03-01T13:56:52;10.10;57.10
2977;DHT22;1498;51.500;7.440;2023-03-01T13:59:20;10.10;57.80
2977;DHT22;1498;51.500;7.440;2023-03-01T14:01:56;10.10;56.00
2977;DHT22;1498;51.500;7.440;2023-03-01T14:07:08;9.90;55.30
2977;DHT22;1498;51.500;7.440;2023-03-01T14:09:34;9.70;55.30
2977;DHT22;1498;51.500;7.440;2023-03-01T14:14:40;9.50;57.10
2977;DHT22;1498;51.500;7.440;2023-03-01T14:19:34;9.50;57.30
2977;DHT22;1498;51.500;7.440;2023-03-01T14:22:11;9.50;58.50
2977;DHT22;1498;51.500;7.440;2023-03-01T14:24:40;9.60;57.90
2977;DHT22;1498;51.500;7.440;2023-03-01T14:27:11;9.70;56.40
2977;DHT22;1498;51.500;7.440;2023-03-01T14:29:39;9.70;56.10
2977;DHT22;1498;51.500;7.440;2023-03-01T14:32:22;9.50;56.30
2977;DHT22;1498;51.500;7.440;2023-03-01T14:34:50;9.40;57.80
2977;DHT22;1498;51.500;7.440;2023-03-01T14:37:28;9.50;57.50
2977;DHT22;1498;51.500;7.440;2023-03-01T14:39:55;9.50;57.10
2977;DHT22;1498;51.500;7.440;2023-03-01T14:42:22;9.40;58.30
2977;DHT22;1498;51.500;7.440;2023-03-01T14:44:50;9.50;58.70
2977;DHT22;1498;51.500;7.440;2023-03-01T14:47:36;9.60;57.60
2977;DHT22;1498;51.500;7.440;2023-03-01T14:52:49;9.30;59.90
2977;DHT22;1498;51.500;7.440;2023-03-01T14:55:18;9.40;58.60
2977;DHT22;1498;51.500;7.440;2023-03-01T14:57:48;9.40;57.90
2977;DHT22;1498;51.500;7.440;2023-03-01T15:00:26;9.40;58.80
2977;DHT22;1498;51.500;7.440;2023-03-01T15:02:54;9.40;58.60
2977;DHT22;1498;51.500;7.440;2023-03-01T15:05:33;9.50;57.90
2977;DHT22;1498;51.500;7.440;2023-03-01T15:08:00;9.70;56.60
2977;DHT22;1498;51.500;7.440;2023-03-01T15:10:32;9.60;57.60
2977;DHT22;1498;51.500;7.440;2023-03-01T15:13:25;9.70;56.50
2977;DHT22;1498;51.500;7.440;2023-03-01T15:16:00;9.60;57.00
2977;DHT22;1498;51.500;7.440;2023-03-01T15:18:28;9.50;56.70
2977;DHT22;1498;51.500;7.440;2023-03-01T15:20:54;9.40;57.10
2977;DHT22;1498;51.500;7.440;2023-03-01T15:23:26;9.40;56.50
2977;DHT22;1498;51.500;7.440;2023-03-01T15:25:53;9.30;56.10
2977;DHT22;1498;51.500;7.440;2023-03-01T15:28:31;9.30;56.20
2977;DHT22;1498;51.500;7.440;2023-03-01T15:31:16;9.20;56.20
2977;DHT22;1498;51.500;7.440;2023-03-01T15:33:43;9.10;57.00
2977;DHT22;1498;51.500;7.440;2023-03-01T15:39:00;8.80;58.00
2977;DHT22;1498;51.500;7.440;2023-03-01T15:41:31;8.90;58.00
2977;DHT22;1498;51.500;7.440;2023-03-01T15:43:58;8.90;58.60
2977;DHT22;1498;51.500;7.440;2023-03-01T15:46:33;8.90;58.20
2977;DHT22;1498;51.500;7.440;2023-03-01T15:49:05;8.90;57.50
2977;DHT22;1498;51.500;7.440;2023-03-01T15:51:43;8.80;58.30
2977;DHT22;1498;51.500;7.440;2023-03-01T15:54:17;8.80;59.40
2977;DHT22;1498;51.500;7.440;2023-03-01T15:56:43;8.80;58.70
2977;DHT22;1498;51.500;7.440;2023-03-01T15:59:10;8.80;58.80
2977;DHT22;1498;51.500;7.440;2023-03-01T16:01:43;8.70;58.80
2977;DHT22;1498;51.500;7.440;2023-03-01T16:04:14;8.60;59.20
2977;DHT22;1498;51.500;7.440;2023-03-01T16:06:46;8.60;59.10
2977;DHT22;1498;51.500;7.440;2023-03-01T16:09:23;8.50;60.40
2977;DHT22;1498;51.500;7.440;2023-03-01T16:11:50;8.50;59.90
2977;DHT22;1498;51.500;7.440;2023-03-01T16:14:16;8.70;59.60
2977;DHT22;1498;51.500;7.440;2023-03-01T16:16:43;8.60;59.10
2977;DHT22;1498;51.500;7.440;2023-03-01T16:19:09;8.60;59.00
2977;DHT22;1498;51.500;7.440;2023-03-01T16:21:35;8.50;59.00
2977;DHT22;1498;51.500;7.440;2023-03-01T16:24:00;8.40;59.60
2977;DHT22;1498;51.500;7.440;2023-03-01T16:26:26;8.30;60.30
2977;DHT22;1498;51.500;7.440;2023-03-01T16:28:55;8.10;61.20
2977;DHT22;1498;51.500;7.440;2023-03-01T16:31:22;8.20;61.20
2977;DHT22;1498;51.500;7.440;2023-03-01T16:33:48;8.20;61.00
2977;DHT22;1498;51.500;7.440;2023-03-01T16:36:16;8.20;61.70
2977;DHT22;1498;51.500;7.440;2023-03-01T16:38:42;8.00;63.00
2977;DHT22;1498;51.500;7.440;2023-03-01T16:41:13;8.10;61.40
2977;DHT22;1498;51.500;7.440;2023-03-01T16:43:39;8.10;62.30
2977;DHT22;1498;51.500;7.440;2023-03-01T16:46:14;8.00;62.30
2977;DHT22;1498;51.500;7.440;2023-03-01T16:48:40;8.00;61.70
2977;DHT22;1498;51.500;7.440;2023-03-01T16:51:07;8.10;60.10
2977;DHT22;1498;51.500;7.440;2023-03-01T16:53:33;8.10;59.50
2977;DHT22;1498;51.500;7.440;2023-03-01T16:56:02;8.10;60.90
2977;DHT22;1498;51.500;7.440;2023-03-01T16:58:29;8.00;60.40
2977;DHT22;1498;51.500;7.440;2023-03-01T17:00:55;8.00;61.30
2977;DHT22;1498;51.500;7.440;2023-03-01T17:03:22;7.90;60.30
2977;DHT22;1498;51.500;7.440;2023-03-01T17:05:49;7.90;61.10
2977;DHT22;1498;51.500;7.440;2023-03-01T17:08:15;7.90;61.70
2977;DHT22;1498;51.500;7.440;2023-03-01T17:10:41;7.90;61.60
2977;DHT22;1498;51.500;7.440;2023-03-01T17:13:08;7.80;60.70
2977;DHT22;1498;51.500;7.440;2023-03-01T17:15:34;7.80;60.90
2977;DHT22;1498;51.500;7.440;2023-03-01T17:18:00;7.70;60.40
2977;DHT22;1498;51.500;7.440;2023-03-01T17:20:26;7.60;61.30
2977;DHT22;1498;51.500;7.440;2023-03-01T17:22:52;7.60;62.80
2977;DHT22;1498;51.500;7.440;2023-03-01T17:25:17;7.50;63.30
2977;DHT22;1498;51.500;7.440;2023-03-01T17:27:43;7.50;63.70
2977;DHT22;1498;51.500;7.440;2023-03-01T17:30:10;7.40;63.20
2977;DHT22;1498;51.500;7.440;2023-03-01T17:32:36;7.40;63.30
2977;DHT22;1498;51.500;7.440;2023-03-01T17:35:02;7.40;62.50
2977;DHT22;1498;51.500;7.440;2023-03-01T17:37:28;7.40;63.50
2977;DHT22;1498;51.500;7.440;2023-03-01T17:39:54;7.30;64.00
2977;DHT22;1498;51.500;7.440;2023-03-01T17:42:19;7.30;64.20
2977;DHT22;1498;51.500;7.440;2023-03-01T17:44:45;7.30;61.90
2977;DHT22;1498;51.500;7.440;2023-03-01T17:47:10;7.30;62.30
2977;DHT22;1498;51.500;7.440;2023-03-01T17:49:36;7.20;63.60
2977;DHT22;1498;51.500;7.440;2023-03-01T17:52:01;7.20;63.10
2977;DHT22;1498;51.500;7.440;2023-03-01T17:54:27;7.20;62.20
2977;DHT22;1498;51.500;7.440;2023-03-01T17:56:53;7.20;62.40
2977;DHT22;1498;51.500;7.440;2023-03-01T17:59:20;7.20;62.50
2977;DHT22;1498;51.500;7.440;2023-03-01T18:01:46;7.30;62.20
2977;DHT22;1498;51.500;7.440;2023-03-01T18:04:12;7.20;62.40
2977;DHT22;1498;51.500;7.440;2023-03-01T18:06:37;7.10;63.30
2977;DHT22;1498;51.500;7.440;2023-03-01T18:09:04;7.10;63.40
2977;DHT22;1498;51.500;7.440;2023-03-01T18:11:32;7.10;63.30
2977;DHT22;1498;51.500;7.440;2023-03-01T18:13:59;7.10;62.30
2977;DHT22;1498;51.500;7.440;2023-03-01T18:16:24;7.20;61.70
2977;DHT22;1498;51.500;7.440;2023-03-01T18:18:54;7.20;61.90
2977;DHT22;1498;51.500;7.440;2023-03-01T18:21:21;7.10;62.30
2977;DHT22;1498;51.500;7.440;2023-03-01T18:23:48;7.00;62.40
2977;DHT22;1498;51.500;7.440;2023-03-01T18:26:14;6.90;64.20
2977;DHT22;1498;51.500;7.440;2023-03-01T18:28:41;6.90;65.30
2977;DHT22;1498;51.500;7.440;2023-03-01T18:31:12;6.90;64.60
2977;DHT22;1498;51.500;7.440;2023-03-01T18:33:39;6.90;64.90
2977;DHT22;1498;51.500;7.440;2023-03-01T18:36:05;6.80;65.80
2977;DHT22;1498;51.500;7.440;2023-03-01T18:38:31;6.80;66.10
2977;DHT22;1498;51.500;7.440;2023-03-01T18:40:57;6.70;66.10
2977;DHT22;1498;51.500;7.440;2023-03-01T18:43:23;6.70;66.90
2977;DHT22;1498;51.500;7.440;2023-03-01T18:45:55;6.70;68.20
2977;DHT22;1498;51.500;7.440;2023-03-01T18:48:21;6.80;68.60
2977;DHT22;1498;51.500;7.440;2023-03-01T18:50:46;6.80;68.60
2977;DHT22;1498;51.500;7.440;2023-03-01T18:53:12;6.70;69.90
2977;DHT22;1498;51.500;7.440;2023-03-01T18:55:38;6.70;70.80
2977;DHT22;1498;51.500;7.440;2023-03-01T18:58:04;6.70;72.20
2977;DHT22;1498;51.500;7.440;2023-03-01T19:00:31;6.60;71.90
2977;DHT22;1498;51.500;7.440;2023-03-01T19:02:58;6.70;72.60
2977;DHT22;1498;51.500;7.440;2023-03-01T19:05:24;6.60;72.70
2977;DHT22;1498;51.500;7.440;2023-03-01T19:07:49;6.60;73.50
2977;DHT22;1498;51.500;7.440;2023-03-01T19:10:16;6.60;74.00
2977;DHT22;1498;51.500;7.440;2023-03-01T19:12:42;6.60;76.60
2977;DHT22;1498;51.500;7.440;2023-03-01T19:15:08;6.90;99.90
2977;DHT22;1498;51.500;7.440;2023-03-01T19:17:34;7.00;90.60
2977;DHT22;1498;51.500;7.440;2023-03-01T19:19:59;6.90;88.80
2977;DHT22;1498;51.500;7.440;2023-03-01T19:22:27;6.80;88.90
2977;DHT22;1498;51.500;7.440;2023-03-01T19:24:53;6.80;87.90
2977;DHT22;1498;51.500;7.440;2023-03-01T19:27:18;6.70;88.90
2977;DHT22;1498;51.500;7.440;2023-03-01T19:29:44;6.60;89.00
2977;DHT22;1498;51.500;7.440;2023-03-01T19:32:09;6.60;88.70
2977;DHT22;1498;51.500;7.440;2023-03-01T19:34:35;6.40;90.10
2977;DHT22;1498;51.500;7.440;2023-03-01T19:37:02;6.50;90.50
2977;DHT22;1498;51.500;7.440;2023-03-01T19:39:28;6.60;89.40
2977;DHT22;1498;51.500;7.440;2023-03-01T19:41:54;6.50;89.40
2977;DHT22;1498;51.500;7.440;2023-03-01T19:44:20;6.50;90.40
2977;DHT22;1498;51.500;7.440;2023-03-01T19:46:52;6.40;90.40
2977;DHT22;1498;51.500;7.440;2023-03-01T19:49:18;6.30;91.30
2977;DHT22;1498;51.500;7.440;2023-03-01T19:51:44;6.30;91.00
2977;DHT22;1498;51.500;7.440;2023-03-01T19:54:10;6.20;91.60